Time;durP1;ratioP1;P1;durP2;ratioP2;P2;SDS_P1;SDS_P2;PMS_P1;PMS_P2;Temp;Humidity;BMP_temperature;BMP_pressure;BME280_temperature;BME280_humidity;BME280_pressure;Samples;Min_cycle;Max_cycle;Signal;HPM_P1;HPM_P2
2023/04/10 00:01:05;;;;;;;9.27;8.47;;;10.60;55.30;;;;;;4996547;28;20216;-92
2023/04/10 00:03:31;;;;;;;9.73;8.80;;;10.60;55.30;;;;;;5015146;28;20230;-94
2023/04/10 00:05:57;;;;;;;9.03;8.33;;;10.70;55.60;;;;;;5017913;28;20169;-94
2023/04/10 00:08:24;;;;;;;8.97;8.17;;;10.60;54.70;;;;;;5018057;28;20197;-92
2023/04/10 00:10:49;;;;;;;9.43;8.43;;;10.70;54.60;;;;;;5011269;28;20213;-89
2023/04/10 00:13:15;;;;;;;9.50;8.60;;;10.70;54.70;;;;;;4995952;28;20192;-89
2023/04/10 00:15:41;;;;;;;8.70;8.00;;;10.70;54.30;;;;;;4993921;28;20818;-89
2023/04/10 00:18:07;;;;;;;9.53;8.63;;;10.60;54.50;;;;;;4995598;28;20199;-92
2023/04/10 00:20:33;;;;;;;9.13;8.43;;;10.60;54.80;;;;;;5016051;28;20196;-93
2023/04/10 00:22:58;;;;;;;9.00;8.20;;;10.60;55.30;;;;;;5006871;28;20554;-91
2023/04/10 00:25:25;;;;;;;8.97;8.20;;;10.60;55.10;;;;;;4993707;28;20673;-91
2023/04/10 00:27:52;;;;;;;9.37;8.57;;;10.60;55.50;;;;;;5006404;28;20179;-91
2023/04/10 00:30:19;;;;;;;9.23;8.40;;;10.70;55.20;;;;;;5005018;28;20211;-90
2023/04/10 00:32:45;;;;;;;9.47;8.67;;;10.60;55.40;;;;;;5014502;28;20191;-92
2023/04/10 00:35:11;;;;;;;9.27;8.47;;;10.50;56.60;;;;;;4999718;28;20573;-91
2023/04/10 00:37:37;;;;;;;9.20;8.50;;;10.20;58.90;;;;;;4993693;28;20212;-90
2023/04/10 00:40:03;;;;;;;9.70;8.80;;;10.10;58.10;;;;;;4995165;28;20863;-89
2023/04/10 00:42:29;;;;;;;9.93;9.13;;;10.20;58.00;;;;;;4992004;28;20262;-89
2023/04/10 00:44:54;;;;;;;9.87;8.93;;;10.20;58.30;;;;;;4991547;28;20298;-88
2023/04/10 00:47:20;;;;;;;9.33;8.53;;;10.10;58.50;;;;;;4992665;28;20214;-89
2023/04/10 00:49:46;;;;;;;8.90;8.10;;;10.00;58.60;;;;;;4992799;28;20176;-90
2023/04/10 00:52:12;;;;;;;10.40;9.47;;;10.00;59.20;;;;;;4992793;28;20270;-89
2023/04/10 00:54:39;;;;;;;9.60;8.80;;;9.90;60.10;;;;;;4994279;28;20191;-87
2023/04/10 00:57:05;;;;;;;9.17;8.40;;;9.60;60.70;;;;;;4994424;28;20187;-90
2023/04/10 00:59:30;;;;;;;9.63;8.73;;;9.50;61.20;;;;;;4994559;28;20180;-88
2023/04/10 01:01:57;;;;;;;10.83;9.13;;;9.40;62.60;;;;;;4993629;28;20202;-89
2023/04/10 01:04:25;;;;;;;9.13;8.33;;;9.30;63.20;;;;;;4993593;28;20278;-89
2023/04/10 01:06:58;;;;;;;9.17;8.43;;;9.40;62.90;;;;;;4992491;28;20258;-91
2023/04/10 01:09:39;;;;;;;9.87;8.97;;;9.40;62.60;;;;;;4991964;28;20170;-89
2023/04/10 01:12:29;;;;;;;9.80;9.00;;;9.40;62.60;;;;;;4992681;28;20213;-89
2023/04/10 01:15:10;;;;;;;8.87;8.10;;;9.50;61.70;;;;;;4992344;28;20240;-89
2023/04/10 01:17:58;;;;;;;9.00;8.20;;;9.50;61.40;;;;;;4990863;28;20174;-88
2023/04/10 01:20:28;;;;;;;8.43;7.63;;;9.40;62.00;;;;;;4993442;28;20222;-90
2023/04/10 01:23:12;;;;;;;8.73;7.93;;;9.20;62.70;;;;;;4992338;28;20197;-89
2023/04/10 01:25:47;;;;;;;9.43;8.63;;;9.20;62.00;;;;;;4992160;28;20538;-90
2023/04/10 01:28:32;;;;;;;9.57;8.67;;;9.20;62.20;;;;;;4992485;28;20612;-89
2023/04/10 01:31:00;;;;;;;9.10;8.30;;;9.20;62.30;;;;;;4992496;28;20260;-90
2023/04/10 01:33:51;;;;;;;8.37;7.57;;;9.20;62.70;;;;;;5012614;28;20174;-88
2023/04/10 01:36:30;;;;;;;8.87;8.00;;;9.10;63.30;;;;;;5011355;28;20225;-89
2023/04/10 01:38:58;;;;;;;9.10;8.30;;;9.00;63.40;;;;;;5011721;28;20301;-88
2023/04/10 01:41:25;;;;;;;8.53;7.83;;;8.90;63.80;;;;;;5013388;28;20237;-88
2023/04/10 01:43:52;;;;;;;8.27;7.57;;;8.90;63.90;;;;;;5011871;28;20272;-90
2023/04/10 01:46:20;;;;;;;9.20;8.37;;;8.80;64.10;;;;;;5012652;28;20643;-88
2023/04/10 01:48:48;;;;;;;9.93;9.03;;;8.70;64.30;;;;;;5015224;28;20177;-88
2023/04/10 01:51:15;;;;;;;7.70;7.07;;;8.80;64.10;;;;;;5016359;28;20197;-88
2023/04/10 01:53:43;;;;;;;8.73;7.93;;;8.80;64.20;;;;;;5016423;28;20185;-89
2023/04/10 01:56:09;;;;;;;9.60;8.60;;;8.80;64.00;;;;;;5018230;28;20178;-89
2023/04/10 01:58:36;;;;;;;8.33;7.63;;;8.80;63.60;;;;;;5022272;28;20259;-89
2023/04/10 02:01:03;;;;;;;9.70;8.83;;;8.90;63.20;;;;;;5019144;28;20582;-89
2023/04/10 02:03:28;;;;;;;10.10;9.13;;;9.00;62.50;;;;;;5014744;28;20205;-89
2023/04/10 02:06:02;;;;;;;10.03;9.03;;;9.00;62.90;;;;;;5014015;28;20186;-90
2023/04/10 02:08:35;;;;;;;9.33;8.53;;;9.10;62.30;;;;;;5014424;28;20182;-90
2023/04/10 02:11:06;;;;;;;9.47;8.57;;;9.10;61.80;;;;;;5013942;28;20568;-89
2023/04/10 02:13:34;;;;;;;9.57;8.67;;;9.20;61.60;;;;;;5014631;28;20599;-88
2023/04/10 02:16:03;;;;;;;10.07;9.07;;;9.10;62.40;;;;;;5015206;28;20200;-90
2023/04/10 02:18:32;;;;;;;9.67;8.87;;;9.20;62.00;;;;;;5015345;28;20182;-90
2023/04/10 02:20:58;;;;;;;9.90;9.00;;;9.20;61.30;;;;;;5005702;28;20321;-90
2023/04/10 02:23:24;;;;;;;9.47;8.67;;;9.20;61.70;;;;;;5014137;28;20206;-90
2023/04/10 02:25:50;;;;;;;9.73;8.83;;;9.20;61.00;;;;;;5013991;28;20181;-90
2023/04/10 02:28:15;;;;;;;10.50;9.60;;;9.20;60.90;;;;;;5015397;28;20185;-89
2023/04/10 02:30:41;;;;;;;10.00;9.10;;;9.20;61.10;;;;;;5012731;28;20314;-89
2023/04/10 02:33:06;;;;;;;9.83;8.93;;;9.10;61.90;;;;;;5013068;28;20228;-88
2023/04/10 02:35:32;;;;;;;9.87;9.03;;;9.10;62.10;;;;;;5013286;28;20182;-90
2023/04/10 02:37:58;;;;;;;10.20;9.30;;;9.20;61.50;;;;;;5015065;28;20571;-90
2023/04/10 02:40:24;;;;;;;10.83;9.87;;;9.10;61.50;;;;;;5015289;28;20225;-88
2023/04/10 02:42:49;;;;;;;9.77;8.87;;;9.10;62.00;;;;;;5014768;28;20456;-89
2023/04/10 02:45:15;;;;;;;9.80;8.90;;;9.00;61.50;;;;;;5015095;28;20244;-90
2023/04/10 02:47:41;;;;;;;9.53;8.73;;;9.10;61.70;;;;;;5015141;28;20197;-89
2023/04/10 02:50:07;;;;;;;9.30;8.50;;;9.00;61.40;;;;;;5000323;28;20182;-88
2023/04/10 02:52:32;;;;;;;9.40;8.50;;;9.00;61.90;;;;;;5013096;28;20201;-90
2023/04/10 02:54:58;;;;;;;10.10;9.10;;;9.10;62.20;;;;;;5010129;28;20198;-90
2023/04/10 02:57:25;;;;;;;9.17;8.37;;;8.90;62.60;;;;;;4995700;28;20330;-89
2023/04/10 02:59:50;;;;;;;9.07;8.27;;;9.00;62.30;;;;;;4995507;28;20185;-89
2023/04/10 03:02:16;;;;;;;8.97;8.17;;;9.00;62.10;;;;;;4994348;28;20202;-90
2023/04/10 03:04:42;;;;;;;9.20;8.40;;;8.90;62.10;;;;;;4993516;28;20210;-90
2023/04/10 03:07:08;;;;;;;9.30;8.40;;;8.90;61.60;;;;;;4994279;28;20192;-91
2023/04/10 03:09:33;;;;;;;8.03;7.33;;;8.90;62.60;;;;;;4992215;28;20178;-89
2023/04/10 03:12:00;;;;;;;8.87;8.07;;;8.80;62.20;;;;;;4994945;28;20206;-89
2023/04/10 03:14:26;;;;;;;9.77;8.87;;;8.70;62.40;;;;;;4994203;28;20269;-90
2023/04/10 03:16:52;;;;;;;9.63;8.77;;;8.70;63.10;;;;;;5008557;28;20217;-90
2023/04/10 03:19:17;;;;;;;9.03;8.23;;;8.70;63.40;;;;;;5016091;28;20189;-89
2023/04/10 03:21:45;;;;;;;8.83;7.90;;;8.60;63.70;;;;;;5014289;28;20205;-89
2023/04/10 03:24:10;;;;;;;8.83;8.03;;;8.60;63.30;;;;;;4999438;28;20202;-89
2023/04/10 03:26:36;;;;;;;8.63;7.93;;;8.70;63.50;;;;;;4993109;28;20241;-89
2023/04/10 03:29:02;;;;;;;9.03;8.13;;;8.70;63.50;;;;;;4993635;28;20186;-89
2023/04/10 03:31:28;;;;;;;8.73;7.93;;;8.60;63.80;;;;;;4997600;28;20642;-89
2023/04/10 03:33:53;;;;;;;9.17;8.37;;;8.60;63.80;;;;;;5013102;28;20186;-89
2023/04/10 03:36:19;;;;;;;9.73;8.90;;;8.60;64.40;;;;;;5012835;28;20184;-89
2023/04/10 03:38:44;;;;;;;9.03;8.23;;;8.50;64.70;;;;;;5012326;28;20190;-91
2023/04/10 03:41:10;;;;;;;9.53;8.63;;;8.50;64.70;;;;;;5014398;28;20267;-89
2023/04/10 03:43:36;;;;;;;9.40;8.60;;;8.40;65.20;;;;;;5014541;28;20206;-87
2023/04/10 03:46:01;;;;;;;9.40;8.53;;;8.50;66.10;;;;;;5013865;28;20204;-90
2023/04/10 03:48:29;;;;;;;14.03;8.07;;;8.40;66.10;;;;;;5010964;28;20197;-89
2023/04/10 03:50:55;;;;;;;9.10;8.30;;;8.40;65.30;;;;;;4993906;28;20202;-89
2023/04/10 03:53:21;;;;;;;8.80;8.00;;;8.40;65.20;;;;;;4995092;28;20194;-89
2023/04/10 03:55:46;;;;;;;8.37;7.67;;;8.40;64.80;;;;;;4994912;28;20185;-90
2023/04/10 03:58:12;;;;;;;9.33;8.53;;;8.40;64.60;;;;;;4993426;28;20182;-90
2023/04/10 04:00:37;;;;;;;8.70;8.00;;;8.40;64.70;;;;;;4993493;28;20676;-90
2023/04/10 04:03:04;;;;;;;9.07;8.27;;;8.30;65.10;;;;;;4990799;28;20179;-89
2023/04/10 04:05:30;;;;;;;8.77;7.97;;;8.20;65.90;;;;;;4993236;28;20190;-89
2023/04/10 04:07:56;;;;;;;8.47;7.67;;;8.10;66.50;;;;;;4992539;28;20681;-90
2023/04/10 04:10:23;;;;;;;8.83;8.03;;;8.00;66.70;;;;;;4992806;28;20174;-89
2023/04/10 04:12:48;;;;;;;8.93;7.97;;;7.80;68.30;;;;;;4999297;28;20544;-90
2023/04/10 04:15:14;;;;;;;8.97;8.17;;;7.60;69.60;;;;;;5005783;28;20273;-87
2023/04/10 04:17:40;;;;;;;9.20;8.30;;;7.50;70.80;;;;;;5012692;28;20285;-90
2023/04/10 04:20:06;;;;;;;9.33;8.30;;;7.50;70.40;;;;;;5001303;28;20289;-88
2023/04/10 04:22:32;;;;;;;9.00;8.20;;;7.50;70.50;;;;;;4991996;28;20665;-90
2023/04/10 04:24:57;;;;;;;8.97;8.07;;;7.50;70.40;;;;;;4992300;28;20216;-90
2023/04/10 04:27:23;;;;;;;8.10;7.40;;;7.50;70.50;;;;;;4992337;28;20178;-89
2023/04/10 04:29:49;;;;;;;9.67;8.63;;;7.50;70.40;;;;;;4992830;28;20240;-91
2023/04/10 04:32:15;;;;;;;8.50;7.80;;;7.50;70.30;;;;;;5002438;28;20299;-89
2023/04/10 04:34:40;;;;;;;8.40;7.60;;;7.50;69.50;;;;;;5011855;28;20464;-88
2023/04/10 04:37:06;;;;;;;7.87;7.10;;;7.60;69.20;;;;;;5013325;28;20182;-90
2023/04/10 04:39:31;;;;;;;7.90;7.13;;;7.70;68.70;;;;;;5030327;28;20221;-91
2023/04/10 04:41:57;;;;;;;8.70;7.90;;;7.70;69.50;;;;;;5035982;28;20215;-89
2023/04/10 04:44:23;;;;;;;8.43;7.63;;;7.40;70.10;;;;;;5034706;28;20198;-91
2023/04/10 04:46:48;;;;;;;7.83;7.13;;;7.10;71.60;;;;;;5033037;28;20707;-90
2023/04/10 04:49:14;;;;;;;9.30;8.40;;;7.10;72.60;;;;;;5026591;28;20194;-90
2023/04/10 04:51:40;;;;;;;7.67;6.93;;;7.10;72.10;;;;;;5016853;28;20190;-90
2023/04/10 04:54:05;;;;;;;8.37;7.57;;;7.10;72.20;;;;;;5017232;28;20167;-89
2023/04/10 04:56:31;;;;;;;8.37;7.57;;;7.10;71.80;;;;;;5016121;28;20185;-90
2023/04/10 04:58:56;;;;;;;9.07;8.17;;;7.20;71.80;;;;;;5003944;28;20225;-89
2023/04/10 05:01:23;;;;;;;8.53;7.63;;;7.20;70.90;;;;;;4994556;28;20256;-89
2023/04/10 05:03:49;;;;;;;10.00;8.13;;;7.20;71.20;;;;;;4993824;28;20213;-90
2023/04/10 05:06:16;;;;;;;8.00;7.20;;;7.10;71.20;;;;;;4994241;28;20265;-88
2023/04/10 05:08:42;;;;;;;8.90;8.07;;;7.20;71.20;;;;;;4995209;28;20260;-89
2023/04/10 05:11:07;;;;;;;8.77;7.90;;;7.20;70.80;;;;;;5006031;28;20228;-90
2023/04/10 05:13:33;;;;;;;8.70;7.80;;;7.20;71.10;;;;;;5014084;28;20256;-90
2023/04/10 05:15:59;;;;;;;8.33;7.63;;;7.20;71.10;;;;;;5004794;28;20197;-89
2023/04/10 05:18:24;;;;;;;8.67;7.87;;;7.20;71.10;;;;;;4993120;28;20189;-89
2023/04/10 05:20:50;;;;;;;8.87;8.07;;;7.20;70.90;;;;;;4995426;28;20216;-90
2023/04/10 05:23:16;;;;;;;9.67;7.93;;;7.00;71.20;;;;;;5012782;28;20182;-89
2023/04/10 05:25:42;;;;;;;8.40;7.53;;;6.60;74.50;;;;;;5007672;28;20201;-89
2023/04/10 05:28:07;;;;;;;10.73;7.87;;;6.50;75.00;;;;;;5004998;28;20182;-88
2023/04/10 05:30:33;;;;;;;10.50;9.50;;;6.60;74.30;;;;;;5005910;28;20238;-88
2023/04/10 05:33:00;;;;;;;10.83;9.77;;;6.70;73.20;;;;;;5014272;28;20193;-90
2023/04/10 05:35:25;;;;;;;9.83;8.93;;;6.80;72.30;;;;;;5032413;28;20179;-90
2023/04/10 05:37:51;;;;;;;10.67;9.57;;;6.90;71.40;;;;;;5039718;28;20178;-90
2023/04/10 05:40:17;;;;;;;8.50;7.70;;;7.10;71.20;;;;;;5040046;28;20225;-88
2023/04/10 05:42:42;;;;;;;8.37;7.67;;;7.20;71.60;;;;;;5039402;28;20178;-90
2023/04/10 05:45:08;;;;;;;8.03;7.33;;;7.20;72.50;;;;;;5040094;28;20221;-89
2023/04/10 05:47:34;;;;;;;8.00;7.30;;;7.10;72.50;;;;;;5039054;28;20174;-87
2023/04/10 05:49:59;;;;;;;9.03;7.97;;;7.10;72.90;;;;;;5011246;28;20182;-88
2023/04/10 05:52:25;;;;;;;10.90;7.87;;;7.00;74.40;;;;;;4995219;28;20213;-87
2023/04/10 05:54:51;;;;;;;10.67;7.80;;;7.10;74.00;;;;;;4994783;28;20239;-89
2023/04/10 05:57:16;;;;;;;8.37;7.67;;;7.20;74.40;;;;;;4997111;28;20178;-89
2023/04/10 05:59:42;;;;;;;7.83;7.13;;;7.20;74.30;;;;;;4996488;28;20186;-90
2023/04/10 06:02:08;;;;;;;7.63;7.00;;;7.10;74.70;;;;;;4997422;28;20202;-90
2023/04/10 06:04:33;;;;;;;7.80;7.10;;;7.10;74.70;;;;;;4999362;28;20301;-88
2023/04/10 06:07:00;;;;;;;8.50;7.67;;;7.30;73.90;;;;;;5005057;28;20249;-89
2023/04/10 06:09:25;;;;;;;9.20;8.20;;;7.30;74.10;;;;;;4996558;28;20265;-89
2023/04/10 06:11:52;;;;;;;12.60;11.50;;;7.30;74.20;;;;;;4997271;28;20711;-89
2023/04/10 06:14:18;;;;;;;11.83;10.77;;;7.30;74.00;;;;;;4995116;28;20182;-92
2023/04/10 06:16:44;;;;;;;11.27;10.03;;;7.30;74.90;;;;;;4994205;28;20186;-90
2023/04/10 06:19:10;;;;;;;8.83;8.03;;;7.50;74.60;;;;;;4994500;28;20692;-89
2023/04/10 06:21:36;;;;;;;18.07;10.70;;;7.60;73.40;;;;;;4995909;28;20214;-89
2023/04/10 06:24:01;;;;;;;8.53;7.60;;;7.60;73.50;;;;;;4995496;28;20206;-89
2023/04/10 06:26:27;;;;;;;8.73;8.03;;;7.70;72.50;;;;;;4993703;28;20560;-89
2023/04/10 06:28:53;;;;;;;8.30;7.53;;;7.70;72.00;;;;;;4996272;28;20202;-89
2023/04/10 06:31:22;;;;;;;7.77;7.07;;;7.70;72.50;;;;;;4996208;28;20226;-90
2023/04/10 06:33:49;;;;;;;7.97;7.30;;;7.80;72.40;;;;;;4995800;28;20186;-90
2023/04/10 06:36:15;;;;;;;7.70;7.00;;;7.90;72.30;;;;;;4995774;28;20182;-90
2023/04/10 06:38:41;;;;;;;8.53;7.80;;;8.00;71.50;;;;;;4996763;28;20194;-90
2023/04/10 06:41:07;;;;;;;7.83;7.13;;;8.10;71.70;;;;;;4997456;28;20256;-90
2023/04/10 06:43:34;;;;;;;7.03;6.33;;;8.20;70.80;;;;;;4998649;28;20218;-89
2023/04/10 06:46:00;;;;;;;7.13;6.53;;;8.30;67.60;;;;;;4996250;28;20185;-90
2023/04/10 06:48:25;;;;;;;6.77;6.17;;;8.50;65.10;;;;;;4993569;28;20182;-88
2023/04/10 06:50:51;;;;;;;6.80;6.20;;;8.60;64.00;;;;;;4994501;28;20210;-89
2023/04/10 06:53:17;;;;;;;6.97;6.37;;;8.80;63.10;;;;;;4996632;28;20311;-88
2023/04/10 06:55:42;;;;;;;6.83;6.23;;;8.90;62.10;;;;;;4995303;28;20597;-90
2023/04/10 06:58:08;;;;;;;6.60;6.10;;;9.10;62.10;;;;;;4995666;28;20185;-89
2023/04/10 07:00:33;;;;;;;6.30;5.80;;;9.10;62.10;;;;;;4997313;28;20232;-89
2023/04/10 07:02:59;;;;;;;6.67;6.07;;;9.20;60.00;;;;;;5000577;28;20182;-88
2023/04/10 07:05:25;;;;;;;5.90;5.40;;;9.40;60.90;;;;;;4994865;28;20632;-90
2023/04/10 07:07:50;;;;;;;6.30;5.80;;;9.50;59.10;;;;;;4999655;28;20185;-90
2023/04/10 07:10:16;;;;;;;5.87;5.43;;;9.60;58.50;;;;;;5013264;28;20174;-89
2023/04/10 07:12:42;;;;;;;6.43;5.83;;;9.70;58.80;;;;;;5013356;28;20197;-89
2023/04/10 07:15:08;;;;;;;7.00;6.40;;;9.80;59.00;;;;;;5011758;28;20533;-89
2023/04/10 07:17:34;;;;;;;6.23;5.63;;;10.00;57.10;;;;;;5013609;28;20204;-88
2023/04/10 07:20:00;;;;;;;6.10;5.60;;;10.10;56.10;;;;;;5014577;28;20186;-90
2023/04/10 07:22:26;;;;;;;6.47;5.87;;;10.20;56.10;;;;;;5015636;28;20224;-89
2023/04/10 07:24:52;;;;;;;6.30;5.80;;;10.30;55.90;;;;;;5014223;28;20232;-90
2023/04/10 07:27:17;;;;;;;5.47;5.03;;;10.40;54.00;;;;;;5014431;28;20656;-90
2023/04/10 07:29:43;;;;;;;6.23;5.73;;;10.50;54.10;;;;;;5015287;28;20189;-89
2023/04/10 07:32:09;;;;;;;5.80;5.30;;;10.70;52.90;;;;;;5016024;28;20246;-90
2023/04/10 07:34:35;;;;;;;6.30;5.43;;;10.80;50.60;;;;;;5014297;28;20186;-90
2023/04/10 07:37:01;;;;;;;5.97;5.40;;;10.80;51.20;;;;;;5013460;28;20178;-90
2023/04/10 07:39:26;;;;;;;6.70;6.10;;;10.80;52.70;;;;;;5014051;28;20179;-90
2023/04/10 07:41:53;;;;;;;5.27;4.87;;;10.90;53.30;;;;;;5013247;28;20206;-91
2023/04/10 07:44:19;;;;;;;5.83;5.37;;;11.20;50.10;;;;;;5015255;28;20266;-90
2023/04/10 07:46:44;;;;;;;6.33;5.73;;;11.20;51.00;;;;;;5013027;28;20204;-88
2023/04/10 07:49:11;;;;;;;5.20;4.80;;;11.40;48.70;;;;;;5007214;28;20177;-90
2023/04/10 07:51:36;;;;;;;5.37;4.97;;;11.50;48.80;;;;;;4996683;28;20251;-90
2023/04/10 07:54:03;;;;;;;5.30;4.90;;;11.70;47.00;;;;;;5001188;28;20186;-91
2023/04/10 07:56:31;;;;;;;5.43;5.03;;;11.80;44.00;;;;;;4995656;28;20188;-90
2023/04/10 07:58:59;;;;;;;6.30;5.77;;;11.80;44.10;;;;;;5009855;28;20258;-90
2023/04/10 08:01:26;;;;;;;5.40;5.00;;;11.80;45.80;;;;;;4998168;28;20230;-90
2023/04/10 08:03:52;;;;;;;5.00;4.60;;;11.80;46.30;;;;;;4996673;28;20335;-90
2023/04/10 08:06:18;;;;;;;5.60;5.20;;;11.90;47.30;;;;;;5014591;28;20202;-90
2023/04/10 08:08:43;;;;;;;5.40;4.90;;;12.00;45.70;;;;;;5014304;28;20197;-89
2023/04/10 08:11:25;;;;;;;5.70;5.30;;;12.00;45.40;;;;;;5014004;28;20568;-89
2023/04/10 08:13:55;;;;;;;5.70;5.20;;;12.10;44.80;;;;;;5013053;28;20178;-89
2023/04/10 08:16:25;;;;;;;5.77;5.27;;;12.30;42.50;;;;;;5010417;28;20178;-87
2023/04/10 08:18:55;;;;;;;5.20;4.80;;;12.60;42.70;;;;;;5011871;28;20180;-90
2023/04/10 08:21:22;;;;;;;5.43;5.03;;;12.70;41.60;;;;;;5013816;28;20198;-90
2023/04/10 08:23:54;;;;;;;5.23;4.73;;;12.70;42.70;;;;;;5015102;28;20667;-90
2023/04/10 08:26:20;;;;;;;4.90;4.50;;;12.90;41.20;;;;;;5013775;28;20195;-90
2023/04/10 08:28:50;;;;;;;5.07;4.67;;;13.00;42.00;;;;;;5014791;28;20679;-90
2023/04/10 08:31:20;;;;;;;5.50;5.10;;;13.10;40.00;;;;;;5014241;28;20466;-91
2023/04/10 08:33:45;;;;;;;4.90;4.50;;;13.30;38.70;;;;;;5013454;28;20718;-91
2023/04/10 08:36:12;;;;;;;5.40;4.90;;;13.40;39.50;;;;;;5013358;28;20187;-91
2023/04/10 08:38:38;;;;;;;5.20;4.80;;;13.50;39.20;;;;;;5013610;28;20184;-90
2023/04/10 08:41:05;;;;;;;4.50;4.20;;;13.60;39.30;;;;;;5013674;28;20549;-90
2023/04/10 08:43:31;;;;;;;4.87;4.57;;;13.80;38.00;;;;;;5013738;28;20204;-88
2023/04/10 08:45:58;;;;;;;4.93;4.63;;;14.00;36.50;;;;;;5013109;28;20189;-90
2023/04/10 08:48:38;;;;;;;4.60;4.20;;;14.10;36.80;;;;;;5014408;28;20191;-89
2023/04/10 08:51:06;;;;;;;5.10;4.70;;;14.20;36.10;;;;;;5012358;28;20672;-89
2023/04/10 08:53:38;;;;;;;5.10;4.70;;;14.40;35.50;;;;;;5007699;28;20179;-89
2023/04/10 08:56:06;;;;;;;5.23;4.83;;;14.50;36.10;;;;;;5004951;28;20208;-91
2023/04/10 08:58:32;;;;;;;4.37;4.07;;;14.60;35.60;;;;;;5013969;28;20805;-90
2023/04/10 09:01:00;;;;;;;4.60;4.20;;;14.60;35.60;;;;;;5002309;28;20226;-89
2023/04/10 09:03:26;;;;;;;4.83;4.43;;;14.70;35.80;;;;;;4991844;28;20391;-90
2023/04/10 09:05:52;;;;;;;4.83;4.50;;;14.60;36.90;;;;;;4990902;28;20193;-91
2023/04/10 09:08:18;;;;;;;5.10;4.70;;;14.80;35.70;;;;;;4989601;28;20569;-89
2023/04/10 09:10:43;;;;;;;4.83;4.43;;;15.20;35.20;;;;;;4991987;28;20555;-90
2023/04/10 09:13:09;;;;;;;5.07;4.67;;;15.40;33.80;;;;;;4990869;28;20187;-89
2023/04/10 09:15:56;;;;;;;4.53;4.23;;;15.40;34.70;;;;;;4992204;28;20212;-90
2023/04/10 09:18:21;;;;;;;4.47;4.17;;;15.30;35.00;;;;;;4993905;28;20170;-90
2023/04/10 09:20:50;;;;;;;4.90;4.50;;;15.30;34.90;;;;;;4993694;28;20205;-88
2023/04/10 09:23:20;;;;;;;4.97;4.57;;;15.40;35.50;;;;;;4994321;28;20187;-90
2023/04/10 09:25:46;;;;;;;5.00;4.60;;;15.80;32.80;;;;;;5001959;28;20208;-90
2023/04/10 09:28:12;;;;;;;4.13;3.90;;;16.10;33.40;;;;;;5006754;28;20194;-91
2023/04/10 09:30:39;;;;;;;4.80;4.50;;;16.40;33.20;;;;;;4996177;28;20261;-91
2023/04/10 09:33:21;;;;;;;4.57;4.27;;;16.70;33.80;;;;;;5012135;28;20184;-90
2023/04/10 09:35:48;;;;;;;5.10;4.73;;;16.80;32.70;;;;;;5024461;28;20181;-91
2023/04/10 09:38:15;;;;;;;5.03;4.70;;;16.60;31.70;;;;;;5036229;28;20205;-91
2023/04/10 09:40:41;;;;;;;5.20;4.80;;;16.50;32.80;;;;;;5036390;28;20192;-91
2023/04/10 09:43:20;;;;;;;5.50;5.10;;;17.00;31.90;;;;;;5036907;28;20202;-90
2023/04/10 09:45:47;;;;;;;5.45;5.15;;;17.30;31.40;;;;;;5018789;28;20186;-91
2023/04/10 09:48:13;;;;;;;5.03;4.70;;;17.10;32.90;;;;;;5015855;28;20189;-90
2023/04/10 09:50:39;;;;;;;6.27;5.63;;;17.00;32.90;;;;;;5009331;28;20209;-89
2023/04/10 09:53:15;;;;;;;6.82;6.32;;;17.30;32.30;;;;;;5010208;28;20191;-89
2023/04/10 09:55:42;;;;;;;7.75;7.25;;;17.40;32.70;;;;;;5013992;28;20169;-92
2023/04/10 09:58:09;;;;;;;5.50;5.13;;;17.60;31.30;;;;;;4996890;28;20204;-90
2023/04/10 10:00:41;;;;;;;5.35;4.95;;;17.80;31.50;;;;;;4991625;28;20193;-90
2023/04/10 10:03:09;;;;;;;5.85;5.45;;;17.90;32.20;;;;;;4992309;28;20637;-90
2023/04/10 10:05:43;;;;;;;5.10;4.80;;;18.00;31.20;;;;;;4991295;28;20218;-90
2023/04/10 10:08:11;;;;;;;5.88;5.47;;;17.90;31.10;;;;;;4992733;28;20240;-90
2023/04/10 10:10:47;;;;;;;5.40;5.07;;;17.70;32.50;;;;;;4993733;28;20695;-89
2023/04/10 10:13:22;;;;;;;5.47;5.18;;;17.70;31.80;;;;;;4997272;28;20182;-91
2023/04/10 10:15:57;;;;;;;5.22;4.93;;;17.70;32.40;;;;;;4997700;28;20177;-91
2023/04/10 10:18:46;;;;;;;5.90;5.50;;;18.10;31.60;;;;;;4999611;28;20178;-93
2023/04/10 10:21:13;;;;;;;5.82;5.43;;;18.40;29.90;;;;;;5002993;28;20199;-91
2023/04/10 10:23:41;;;;;;;6.50;5.90;;;18.50;30.10;;;;;;5015014;28;20206;-90
2023/04/10 10:26:09;;;;;;;6.60;6.15;;;18.80;29.60;;;;;;5002190;28;20166;-91
2023/04/10 10:28:35;;;;;;;5.50;4.97;;;18.90;29.50;;;;;;4998206;28;20189;-89
2023/04/10 10:31:02;;;;;;;6.00;5.70;;;19.00;28.50;;;;;;4999216;28;20221;-91
2023/04/10 10:33:29;;;;;;;5.60;5.20;;;19.00;28.80;;;;;;5019154;28;20684;-90
2023/04/10 10:36:03;;;;;;;5.10;4.80;;;18.80;28.70;;;;;;5017890;28;20177;-90
2023/04/10 10:38:30;;;;;;;5.85;5.45;;;18.90;29.20;;;;;;5018783;28;20213;-90
2023/04/10 10:41:11;;;;;;;6.00;5.60;;;19.00;29.30;;;;;;5017505;28;20706;-91
2023/04/10 10:44:00;;;;;;;5.82;5.32;;;19.30;29.40;;;;;;4998770;28;20201;-91
2023/04/10 10:46:38;;;;;;;6.05;5.65;;;19.70;28.50;;;;;;4995058;28;20625;-89
2023/04/10 10:49:04;;;;;;;5.50;5.20;;;19.90;27.80;;;;;;5004585;28;20687;-90
2023/04/10 10:51:46;;;;;;;5.72;5.32;;;19.60;28.00;;;;;;5008861;28;20830;-92
2023/04/10 10:54:27;;;;;;;4.78;4.47;;;19.10;27.20;;;;;;5002816;28;20684;-91
2023/04/10 10:56:53;;;;;;;5.13;4.82;;;19.30;28.40;;;;;;4998096;28;20178;-90
2023/04/10 10:59:47;;;;;;;5.80;5.40;;;19.60;28.70;;;;;;5006019;28;20591;-91
2023/04/10 11:02:17;;;;;;;7.82;7.32;;;20.00;27.10;;;;;;5006765;28;20213;-92
2023/04/10 11:04:44;;;;;;;6.45;6.10;;;20.60;26.20;;;;;;5001234;28;20228;-91
2023/04/10 11:07:10;;;;;;;6.57;6.18;;;20.80;26.10;;;;;;5000930;28;20176;-90
2023/04/10 11:09:53;;;;;;;8.15;7.38;;;20.50;26.80;;;;;;5007051;28;20227;-91
2023/04/10 11:12:24;;;;;;;7.00;6.30;;;20.60;26.70;;;;;;5006179;28;20204;-91
2023/04/10 11:15:00;;;;;;;7.00;6.50;;;21.10;26.10;;;;;;4998478;28;20630;-90
2023/04/10 11:17:52;;;;;;;8.30;7.80;;;21.10;25.70;;;;;;4998143;28;20181;-89
2023/04/10 11:20:20;;;;;;;7.25;6.85;;;21.40;24.80;;;;;;5001781;28;20370;-91
2023/04/10 11:23:11;;;;;;;7.28;6.82;;;21.50;24.90;;;;;;4996524;28;20188;-91
2023/04/10 11:25:53;;;;;;;6.82;6.43;;;21.30;25.70;;;;;;4991092;28;20198;-90
2023/04/10 11:28:31;;;;;;;7.50;7.10;;;21.60;26.40;;;;;;4992743;28;20171;-91
2023/04/10 11:31:15;;;;;;;7.65;7.25;;;22.00;25.20;;;;;;4993969;28;20221;-91
2023/04/10 11:33:40;;;;;;;8.13;7.63;;;21.80;25.50;;;;;;4973479;28;20204;-92
2023/04/10 11:36:07;;;;;;;8.82;8.32;;;22.10;24.60;;;;;;4987853;28;20205;-90
2023/04/10 11:38:33;;;;;;;7.53;7.13;;;22.10;25.40;;;;;;4992773;28;20197;-91
2023/04/10 11:41:02;;;;;;;7.53;7.13;;;22.30;24.90;;;;;;4991518;28;20210;-91
2023/04/10 11:43:28;;;;;;;7.80;7.40;;;22.60;25.10;;;;;;4995473;28;20265;-90
2023/04/10 11:46:06;;;;;;;7.85;7.45;;;22.50;24.40;;;;;;4997450;28;20293;-90
2023/04/10 11:48:32;;;;;;;7.78;7.38;;;22.60;24.80;;;;;;4990139;28;20663;-91
2023/04/10 11:51:00;;;;;;;8.07;7.65;;;22.50;24.90;;;;;;4988150;28;20229;-89
2023/04/10 11:53:28;;;;;;;8.02;7.63;;;22.40;25.40;;;;;;4990952;28;20268;-90
2023/04/10 11:55:54;;;;;;;7.70;7.30;;;21.80;25.50;;;;;;4997646;28;20504;-91
2023/04/10 11:58:27;;;;;;;7.45;7.05;;;21.80;25.60;;;;;;4998195;28;20217;-90
2023/04/10 12:00:57;;;;;;;8.23;7.53;;;21.90;25.50;;;;;;4991146;28;20232;-90
2023/04/10 12:03:37;;;;;;;8.20;7.80;;;22.50;25.00;;;;;;4990100;28;20370;-90
2023/04/10 12:06:09;;;;;;;8.32;7.82;;;22.50;25.00;;;;;;4989240;28;20162;-90
2023/04/10 12:08:36;;;;;;;10.73;10.13;;;22.10;25.10;;;;;;4991134;28;20579;-91
2023/04/10 12:11:02;;;;;;;8.13;7.72;;;22.30;25.00;;;;;;4991803;28;20229;-90
2023/04/10 12:13:29;;;;;;;8.90;8.30;;;22.30;24.80;;;;;;4991693;28;20657;-91
2023/04/10 12:16:05;;;;;;;8.20;7.80;;;22.40;24.30;;;;;;4990737;28;20240;-92
2023/04/10 12:18:31;;;;;;;7.78;7.38;;;22.30;25.60;;;;;;4991526;28;20999;-89
2023/04/10 12:20:58;;;;;;;8.38;7.88;;;22.80;25.60;;;;;;4990475;28;20233;-91
2023/04/10 12:23:25;;;;;;;7.93;7.53;;;22.70;25.80;;;;;;4991756;28;20190;-91
2023/04/10 12:25:52;;;;;;;7.85;7.45;;;22.60;25.20;;;;;;4991078;28;20210;-91
2023/04/10 12:28:19;;;;;;;8.30;7.82;;;21.80;26.70;;;;;;4989635;28;20609;-92
2023/04/10 12:30:52;;;;;;;7.53;7.13;;;21.70;25.70;;;;;;4991515;28;20225;-90
2023/04/10 12:33:22;;;;;;;8.10;7.70;;;21.50;26.40;;;;;;4994897;28;20198;-91
2023/04/10 12:35:48;;;;;;;8.00;7.60;;;21.80;26.40;;;;;;4991385;28;20649;-88
2023/04/10 12:38:13;;;;;;;9.07;8.48;;;21.80;26.30;;;;;;4992666;28;20800;-91
2023/04/10 12:40:57;;;;;;;7.85;7.45;;;21.90;26.00;;;;;;5002781;28;20753;-91
2023/04/10 12:43:36;;;;;;;7.93;7.43;;;22.10;25.80;;;;;;5011724;28;20208;-91
2023/04/10 12:46:03;;;;;;;7.63;7.22;;;22.30;26.40;;;;;;5002335;28;20378;-91
2023/04/10 12:48:29;;;;;;;9.43;8.52;;;21.80;24.90;;;;;;4993217;28;20175;-91
2023/04/10 12:50:55;;;;;;;7.97;7.50;;;22.20;25.40;;;;;;4990813;28;20194;-91
2023/04/10 12:53:20;;;;;;;9.32;8.50;;;22.40;24.80;;;;;;4992764;28;20186;-90
2023/04/10 12:56:02;;;;;;;7.72;7.32;;;22.50;25.40;;;;;;5001416;28;20170;-91